sensor_id;sensor_type;location;lat;lon;timestamp;temperature;humidity
38480;DHT22;62333;51.980;5.934;2024-01-11T00:01:59;3.00;49.30
38480;DHT22;62333;51.980;5.934;2024-01-11T00:04:24;2.90;49.20
38480;DHT22;62333;51.980;5.934;2024-01-11T00:06:50;2.80;49.30
38480;DHT22;62333;51.980;5.934;2024-01-11T00:09:16;2.70;49.40
38480;DHT22;62333;51.980;5.934;2024-01-11T00:11:42;2.60;49.40
38480;DHT22;62333;51.980;5.934;2024-01-11T00:14:07;2.70;49.70
38480;DHT22;62333;51.980;5.934;2024-01-11T00:16:33;2.60;49.70
38480;DHT22;62333;51.980;5.934;2024-01-11T00:18:58;2.70;49.70
38480;DHT22;62333;51.980;5.934;2024-01-11T00:21:24;2.80;49.80
38480;DHT22;62333;51.980;5.934;2024-01-11T00:23:50;2.80;49.80
38480;DHT22;62333;51.980;5.934;2024-01-11T00:26:15;2.90;49.80
38480;DHT22;62333;51.980;5.934;2024-01-11T00:28:41;2.90;49.80
38480;DHT22;62333;51.980;5.934;2024-01-11T00:31:06;3.00;49.80
38480;DHT22;62333;51.980;5.934;2024-01-11T00:33:32;2.90;49.80
38480;DHT22;62333;51.980;5.934;2024-01-11T00:35:58;2.90;49.80
38480;DHT22;62333;51.980;5.934;2024-01-11T00:38:24;2.90;49.70
38480;DHT22;62333;51.980;5.934;2024-01-11T00:40:49;3.00;49.80
38480;DHT22;62333;51.980;5.934;2024-01-11T00:43:15;2.90;49.70
38480;DHT22;62333;51.980;5.934;2024-01-11T00:45:41;2.80;49.80
38480;DHT22;62333;51.980;5.934;2024-01-11T00:48:06;2.80;49.80
38480;DHT22;62333;51.980;5.934;2024-01-11T00:50:32;2.70;49.90
38480;DHT22;62333;51.980;5.934;2024-01-11T00:52:58;2.70;50.00
38480;DHT22;62333;51.980;5.934;2024-01-11T00:55:23;2.70;50.10
38480;DHT22;62333;51.980;5.934;2024-01-11T00:57:50;2.60;50.10
38480;DHT22;62333;51.980;5.934;2024-01-11T01:00:16;2.70;50.20
38480;DHT22;62333;51.980;5.934;2024-01-11T01:02:41;2.70;50.10
38480;DHT22;62333;51.980;5.934;2024-01-11T01:05:07;2.70;50.10
38480;DHT22;62333;51.980;5.934;2024-01-11T01:07:33;2.60;50.10
38480;DHT22;62333;51.980;5.934;2024-01-11T01:09:59;2.60;50.30
38480;DHT22;62333;51.980;5.934;2024-01-11T01:12:25;2.60;50.30
38480;DHT22;62333;51.980;5.934;2024-01-11T01:14:51;2.60;50.30
38480;DHT22;62333;51.980;5.934;2024-01-11T01:17:17;2.60;50.40
38480;DHT22;62333;51.980;5.934;2024-01-11T01:19:43;2.50;50.40
38480;DHT22;62333;51.980;5.934;2024-01-11T01:22:09;2.50;50.50
38480;DHT22;62333;51.980;5.934;2024-01-11T01:24:35;2.50;50.50
38480;DHT22;62333;51.980;5.934;2024-01-11T01:27:01;2.50;50.60
38480;DHT22;62333;51.980;5.934;2024-01-11T01:29:27;2.50;50.60
38480;DHT22;62333;51.980;5.934;2024-01-11T01:31:52;2.50;50.70
38480;DHT22;62333;51.980;5.934;2024-01-11T01:34:19;2.50;50.70
38480;DHT22;62333;51.980;5.934;2024-01-11T01:36:44;2.60;50.70
38480;DHT22;62333;51.980;5.934;2024-01-11T01:39:10;2.60;50.80
38480;DHT22;62333;51.980;5.934;2024-01-11T01:41:36;2.60;50.80
38480;DHT22;62333;51.980;5.934;2024-01-11T01:44:02;2.60;50.80
38480;DHT22;62333;51.980;5.934;2024-01-11T01:46:28;2.50;50.80
38480;DHT22;62333;51.980;5.934;2024-01-11T01:48:54;2.50;50.80
38480;DHT22;62333;51.980;5.934;2024-01-11T01:51:21;2.50;50.90
38480;DHT22;62333;51.980;5.934;2024-01-11T01:53:49;2.50;50.90
38480;DHT22;62333;51.980;5.934;2024-01-11T01:56:16;2.50;50.90
38480;DHT22;62333;51.980;5.934;2024-01-11T01:58:42;2.50;50.90
38480;DHT22;62333;51.980;5.934;2024-01-11T02:01:08;2.50;51.60
38480;DHT22;62333;51.980;5.934;2024-01-11T02:03:35;2.50;51.00
38480;DHT22;62333;51.980;5.934;2024-01-11T02:06:03;2.50;51.10
38480;DHT22;62333;51.980;5.934;2024-01-11T02:08:30;2.40;51.00
38480;DHT22;62333;51.980;5.934;2024-01-11T02:11:00;2.50;51.10
38480;DHT22;62333;51.980;5.934;2024-01-11T02:13:26;2.50;51.20
38480;DHT22;62333;51.980;5.934;2024-01-11T02:15:52;2.40;51.10
38480;DHT22;62333;51.980;5.934;2024-01-11T02:18:17;2.40;51.10
38480;DHT22;62333;51.980;5.934;2024-01-11T02:20:43;2.40;51.20
38480;DHT22;62333;51.980;5.934;2024-01-11T02:23:17;2.40;51.30
38480;DHT22;62333;51.980;5.934;2024-01-11T02:25:44;2.40;51.30
38480;DHT22;62333;51.980;5.934;2024-01-11T02:28:10;2.30;51.30
38480;DHT22;62333;51.980;5.934;2024-01-11T02:30:36;2.40;51.50
38480;DHT22;62333;51.980;5.934;2024-01-11T02:33:03;2.30;51.40
38480;DHT22;62333;51.980;5.934;2024-01-11T02:35:31;2.30;51.50
38480;DHT22;62333;51.980;5.934;2024-01-11T02:37:57;2.30;51.60
38480;DHT22;62333;51.980;5.934;2024-01-11T02:40:23;2.30;51.60
38480;DHT22;62333;51.980;5.934;2024-01-11T02:42:51;2.30;51.60
38480;DHT22;62333;51.980;5.934;2024-01-11T02:45:16;2.30;51.70
38480;DHT22;62333;51.980;5.934;2024-01-11T02:47:42;2.30;51.70
38480;DHT22;62333;51.980;5.934;2024-01-11T02:50:08;2.30;51.80
38480;DHT22;62333;51.980;5.934;2024-01-11T02:52:34;2.30;51.80
38480;DHT22;62333;51.980;5.934;2024-01-11T02:55:00;2.30;51.80
38480;DHT22;62333;51.980;5.934;2024-01-11T02:57:25;2.30;51.90
38480;DHT22;62333;51.980;5.934;2024-01-11T02:59:51;2.30;52.00
38480;DHT22;62333;51.980;5.934;2024-01-11T03:02:17;2.30;52.00
38480;DHT22;62333;51.980;5.934;2024-01-11T03:04:42;2.30;52.00
38480;DHT22;62333;51.980;5.934;2024-01-11T03:07:08;2.30;52.10
38480;DHT22;62333;51.980;5.934;2024-01-11T03:09:34;2.30;52.20
38480;DHT22;62333;51.980;5.934;2024-01-11T03:12:00;2.20;52.10
38480;DHT22;62333;51.980;5.934;2024-01-11T03:14:26;2.20;52.10
38480;DHT22;62333;51.980;5.934;2024-01-11T03:16:52;2.20;52.20
38480;DHT22;62333;51.980;5.934;2024-01-11T03:19:17;2.20;52.30
38480;DHT22;62333;51.980;5.934;2024-01-11T03:21:43;2.20;52.40
38480;DHT22;62333;51.980;5.934;2024-01-11T03:24:09;2.20;52.40
38480;DHT22;62333;51.980;5.934;2024-01-11T03:26:35;2.20;52.50
38480;DHT22;62333;51.980;5.934;2024-01-11T03:29:00;2.20;52.50
38480;DHT22;62333;51.980;5.934;2024-01-11T03:31:26;2.20;52.60
38480;DHT22;62333;51.980;5.934;2024-01-11T03:33:52;2.10;52.60
38480;DHT22;62333;51.980;5.934;2024-01-11T03:36:17;2.20;52.60
38480;DHT22;62333;51.980;5.934;2024-01-11T03:38:43;2.10;52.70
38480;DHT22;62333;51.980;5.934;2024-01-11T03:41:09;2.10;52.70
38480;DHT22;62333;51.980;5.934;2024-01-11T03:43:36;2.10;52.80
38480;DHT22;62333;51.980;5.934;2024-01-11T03:46:02;2.10;52.90
38480;DHT22;62333;51.980;5.934;2024-01-11T03:48:27;2.10;52.90
38480;DHT22;62333;51.980;5.934;2024-01-11T03:50:53;2.00;52.90
38480;DHT22;62333;51.980;5.934;2024-01-11T03:53:18;2.10;53.00
38480;DHT22;62333;51.980;5.934;2024-01-11T03:55:44;2.00;53.00
38480;DHT22;62333;51.980;5.934;2024-01-11T03:58:10;2.00;53.00
38480;DHT22;62333;51.980;5.934;2024-01-11T04:00:35;2.00;53.10
38480;DHT22;62333;51.980;5.934;2024-01-11T04:03:01;2.00;53.20
38480;DHT22;62333;51.980;5.934;2024-01-11T04:05:27;2.00;53.20
38480;DHT22;62333;51.980;5.934;2024-01-11T04:07:53;2.00;53.30
38480;DHT22;62333;51.980;5.934;2024-01-11T04:10:19;2.00;53.40
38480;DHT22;62333;51.980;5.934;2024-01-11T04:12:44;2.00;53.40
38480;DHT22;62333;51.980;5.934;2024-01-11T04:15:13;2.00;53.40
38480;DHT22;62333;51.980;5.934;2024-01-11T04:17:39;2.00;53.40
38480;DHT22;62333;51.980;5.934;2024-01-11T04:20:06;1.90;53.50
38480;DHT22;62333;51.980;5.934;2024-01-11T04:22:32;1.90;53.50
38480;DHT22;62333;51.980;5.934;2024-01-11T04:24:58;1.90;53.60
38480;DHT22;62333;51.980;5.934;2024-01-11T04:27:23;1.90;53.70
38480;DHT22;62333;51.980;5.934;2024-01-11T04:29:49;1.90;53.70
38480;DHT22;62333;51.980;5.934;2024-01-11T04:32:15;1.90;53.80
38480;DHT22;62333;51.980;5.934;2024-01-11T04:34:40;1.90;53.80
38480;DHT22;62333;51.980;5.934;2024-01-11T04:37:06;1.80;53.80
38480;DHT22;62333;51.980;5.934;2024-01-11T04:39:33;1.80;53.80
38480;DHT22;62333;51.980;5.934;2024-01-11T04:41:59;1.80;53.90
38480;DHT22;62333;51.980;5.934;2024-01-11T04:44:26;1.80;53.90
38480;DHT22;62333;51.980;5.934;2024-01-11T04:46:51;1.70;53.90
38480;DHT22;62333;51.980;5.934;2024-01-11T04:49:17;1.70;54.00
38480;DHT22;62333;51.980;5.934;2024-01-11T04:51:43;1.60;54.00
38480;DHT22;62333;51.980;5.934;2024-01-11T04:54:08;1.50;54.10
38480;DHT22;62333;51.980;5.934;2024-01-11T04:56:34;1.50;54.50
38480;DHT22;62333;51.980;5.934;2024-01-11T04:58:59;1.50;55.10
38480;DHT22;62333;51.980;5.934;2024-01-11T05:01:25;1.40;54.50
38480;DHT22;62333;51.980;5.934;2024-01-11T05:03:51;1.50;54.80
38480;DHT22;62333;51.980;5.934;2024-01-11T05:06:17;1.50;54.90
38480;DHT22;62333;51.980;5.934;2024-01-11T05:08:47;1.60;54.90
38480;DHT22;62333;51.980;5.934;2024-01-11T05:11:21;1.60;55.00
38480;DHT22;62333;51.980;5.934;2024-01-11T05:13:49;1.70;55.00
38480;DHT22;62333;51.980;5.934;2024-01-11T05:16:25;1.60;55.10
38480;DHT22;62333;51.980;5.934;2024-01-11T05:18:52;1.60;55.00
38480;DHT22;62333;51.980;5.934;2024-01-11T05:21:18;1.70;55.10
38480;DHT22;62333;51.980;5.934;2024-01-11T05:23:44;1.70;55.10
38480;DHT22;62333;51.980;5.934;2024-01-11T05:26:10;1.80;55.20
38480;DHT22;62333;51.980;5.934;2024-01-11T05:28:36;1.70;55.10
38480;DHT22;62333;51.980;5.934;2024-01-11T05:31:09;1.70;55.10
38480;DHT22;62333;51.980;5.934;2024-01-11T05:33:35;1.70;55.20
38480;DHT22;62333;51.980;5.934;2024-01-11T05:36:00;1.60;55.20
38480;DHT22;62333;51.980;5.934;2024-01-11T05:38:26;1.70;55.20
38480;DHT22;62333;51.980;5.934;2024-01-11T05:40:51;1.70;55.20
38480;DHT22;62333;51.980;5.934;2024-01-11T05:43:17;1.70;55.20
38480;DHT22;62333;51.980;5.934;2024-01-11T05:45:43;1.60;55.20
38480;DHT22;62333;51.980;5.934;2024-01-11T05:48:10;1.70;55.30
38480;DHT22;62333;51.980;5.934;2024-01-11T05:50:36;1.70;55.40
38480;DHT22;62333;51.980;5.934;2024-01-11T05:53:02;1.60;55.40
38480;DHT22;62333;51.980;5.934;2024-01-11T05:55:28;1.60;55.40
38480;DHT22;62333;51.980;5.934;2024-01-11T05:57:53;1.60;55.40
38480;DHT22;62333;51.980;5.934;2024-01-11T06:00:19;1.70;55.40
38480;DHT22;62333;51.980;5.934;2024-01-11T06:02:45;1.60;55.40
38480;DHT22;62333;51.980;5.934;2024-01-11T06:05:11;1.60;55.50
38480;DHT22;62333;51.980;5.934;2024-01-11T06:07:38;1.60;55.60
38480;DHT22;62333;51.980;5.934;2024-01-11T06:10:04;1.60;55.70
38480;DHT22;62333;51.980;5.934;2024-01-11T06:12:31;1.60;55.70
38480;DHT22;62333;51.980;5.934;2024-01-11T06:14:58;1.60;55.70
38480;DHT22;62333;51.980;5.934;2024-01-11T06:17:24;1.60;55.70
38480;DHT22;62333;51.980;5.934;2024-01-11T06:19:49;1.60;55.80
38480;DHT22;62333;51.980;5.934;2024-01-11T06:22:15;1.60;55.90
38480;DHT22;62333;51.980;5.934;2024-01-11T06:24:41;1.60;55.80
38480;DHT22;62333;51.980;5.934;2024-01-11T06:27:07;1.60;55.80
38480;DHT22;62333;51.980;5.934;2024-01-11T06:29:32;1.50;56.40
38480;DHT22;62333;51.980;5.934;2024-01-11T06:31:58;1.50;56.10
38480;DHT22;62333;51.980;5.934;2024-01-11T06:34:24;1.50;56.20
38480;DHT22;62333;51.980;5.934;2024-01-11T06:36:49;1.50;56.20
38480;DHT22;62333;51.980;5.934;2024-01-11T06:39:15;1.50;56.30
38480;DHT22;62333;51.980;5.934;2024-01-11T06:41:41;1.50;56.40
38480;DHT22;62333;51.980;5.934;2024-01-11T06:44:06;1.50;56.50
38480;DHT22;62333;51.980;5.934;2024-01-11T06:46:32;1.50;56.60
38480;DHT22;62333;51.980;5.934;2024-01-11T06:48:58;1.50;56.60
38480;DHT22;62333;51.980;5.934;2024-01-11T06:51:23;1.50;56.60
38480;DHT22;62333;51.980;5.934;2024-01-11T06:53:49;1.50;56.60
38480;DHT22;62333;51.980;5.934;2024-01-11T06:56:19;1.50;56.60
38480;DHT22;62333;51.980;5.934;2024-01-11T06:58:46;1.60;56.70
38480;DHT22;62333;51.980;5.934;2024-01-11T07:01:12;1.50;56.70
38480;DHT22;62333;51.980;5.934;2024-01-11T07:03:40;1.50;56.60
38480;DHT22;62333;51.980;5.934;2024-01-11T07:06:06;1.40;56.60
38480;DHT22;62333;51.980;5.934;2024-01-11T07:08:32;1.50;56.70
38480;DHT22;62333;51.980;5.934;2024-01-11T07:11:00;1.50;57.40
38480;DHT22;62333;51.980;5.934;2024-01-11T07:13:28;1.50;56.90
38480;DHT22;62333;51.980;5.934;2024-01-11T07:15:54;1.50;56.90
38480;DHT22;62333;51.980;5.934;2024-01-11T07:18:21;1.50;56.90
38480;DHT22;62333;51.980;5.934;2024-01-11T07:20:47;1.50;56.90
38480;DHT22;62333;51.980;5.934;2024-01-11T07:23:13;1.60;57.00
38480;DHT22;62333;51.980;5.934;2024-01-11T07:25:39;1.60;57.60
38480;DHT22;62333;51.980;5.934;2024-01-11T07:28:06;1.60;57.00
38480;DHT22;62333;51.980;5.934;2024-01-11T07:30:32;1.60;57.10
38480;DHT22;62333;51.980;5.934;2024-01-11T07:32:57;1.60;57.10
38480;DHT22;62333;51.980;5.934;2024-01-11T07:35:23;1.70;57.20
38480;DHT22;62333;51.980;5.934;2024-01-11T07:37:48;1.70;57.20
38480;DHT22;62333;51.980;5.934;2024-01-11T07:40:15;1.70;57.20
38480;DHT22;62333;51.980;5.934;2024-01-11T07:42:42;1.70;57.70
38480;DHT22;62333;51.980;5.934;2024-01-11T07:45:08;1.70;57.20
38480;DHT22;62333;51.980;5.934;2024-01-11T07:47:35;1.70;57.20
38480;DHT22;62333;51.980;5.934;2024-01-11T07:50:06;1.70;57.20
38480;DHT22;62333;51.980;5.934;2024-01-11T07:52:38;1.70;57.20
38480;DHT22;62333;51.980;5.934;2024-01-11T07:55:08;1.70;57.40
38480;DHT22;62333;51.980;5.934;2024-01-11T07:57:35;1.70;57.50
38480;DHT22;62333;51.980;5.934;2024-01-11T08:00:01;1.70;57.50
38480;DHT22;62333;51.980;5.934;2024-01-11T08:02:28;1.70;57.50
38480;DHT22;62333;51.980;5.934;2024-01-11T08:04:54;1.70;57.50
38480;DHT22;62333;51.980;5.934;2024-01-11T08:07:19;1.80;57.60
38480;DHT22;62333;51.980;5.934;2024-01-11T08:09:46;1.80;57.60
38480;DHT22;62333;51.980;5.934;2024-01-11T08:12:12;1.80;57.60
38480;DHT22;62333;51.980;5.934;2024-01-11T08:14:38;1.90;57.70
38480;DHT22;62333;51.980;5.934;2024-01-11T08:17:04;2.00;57.60
38480;DHT22;62333;51.980;5.934;2024-01-11T08:19:31;2.30;57.60
38480;DHT22;62333;51.980;5.934;2024-01-11T08:21:57;2.80;57.70
38480;DHT22;62333;51.980;5.934;2024-01-11T08:24:23;3.70;58.50
38480;DHT22;62333;51.980;5.934;2024-01-11T08:26:50;4.60;58.20
38480;DHT22;62333;51.980;5.934;2024-01-11T08:29:16;5.60;57.00
38480;DHT22;62333;51.980;5.934;2024-01-11T08:31:44;6.40;55.30
38480;DHT22;62333;51.980;5.934;2024-01-11T08:34:10;7.20;53.70
38480;DHT22;62333;51.980;5.934;2024-01-11T08:36:36;7.80;52.00
38480;DHT22;62333;51.980;5.934;2024-01-11T08:39:06;8.30;50.60
38480;DHT22;62333;51.980;5.934;2024-01-11T08:41:33;8.80;49.50
38480;DHT22;62333;51.980;5.934;2024-01-11T08:43:59;9.20;48.20
38480;DHT22;62333;51.980;5.934;2024-01-11T08:46:28;9.60;47.00
38480;DHT22;62333;51.980;5.934;2024-01-11T08:48:54;9.90;46.00
38480;DHT22;62333;51.980;5.934;2024-01-11T08:51:22;10.00;45.20
38480;DHT22;62333;51.980;5.934;2024-01-11T08:53:47;10.10;44.80
38480;DHT22;62333;51.980;5.934;2024-01-11T08:56:13;10.20;44.20
38480;DHT22;62333;51.980;5.934;2024-01-11T08:58:42;10.20;43.60
38480;DHT22;62333;51.980;5.934;2024-01-11T09:01:07;10.20;42.80
38480;DHT22;62333;51.980;5.934;2024-01-11T09:03:36;10.10;42.10
38480;DHT22;62333;51.980;5.934;2024-01-11T09:06:04;10.10;41.80
38480;DHT22;62333;51.980;5.934;2024-01-11T09:08:30;9.90;41.90
38480;DHT22;62333;51.980;5.934;2024-01-11T09:10:56;9.70;42.10
38480;DHT22;62333;51.980;5.934;2024-01-11T09:13:23;9.40;42.50
38480;DHT22;62333;51.980;5.934;2024-01-11T09:15:50;9.20;43.10
38480;DHT22;62333;51.980;5.934;2024-01-11T09:18:16;8.90;43.50
38480;DHT22;62333;51.980;5.934;2024-01-11T09:20:43;8.70;44.00
38480;DHT22;62333;51.980;5.934;2024-01-11T09:23:08;8.50;44.30
38480;DHT22;62333;51.980;5.934;2024-01-11T09:25:34;8.30;44.70
38480;DHT22;62333;51.980;5.934;2024-01-11T09:28:00;8.10;44.90
38480;DHT22;62333;51.980;5.934;2024-01-11T09:30:26;7.60;45.20
38480;DHT22;62333;51.980;5.934;2024-01-11T09:32:52;6.90;47.20
38480;DHT22;62333;51.980;5.934;2024-01-11T09:35:18;6.50;49.60
38480;DHT22;62333;51.980;5.934;2024-01-11T09:37:43;6.10;51.30
38480;DHT22;62333;51.980;5.934;2024-01-11T09:40:12;5.80;51.10
38480;DHT22;62333;51.980;5.934;2024-01-11T09:42:38;5.40;50.10
38480;DHT22;62333;51.980;5.934;2024-01-11T09:45:13;5.10;50.10
38480;DHT22;62333;51.980;5.934;2024-01-11T09:47:39;5.00;49.80
38480;DHT22;62333;51.980;5.934;2024-01-11T09:50:06;5.00;49.90
38480;DHT22;62333;51.980;5.934;2024-01-11T09:52:32;5.00;49.80
38480;DHT22;62333;51.980;5.934;2024-01-11T09:55:01;5.00;49.80
38480;DHT22;62333;51.980;5.934;2024-01-11T09:57:30;4.90;50.40
38480;DHT22;62333;51.980;5.934;2024-01-11T09:59:57;4.90;49.90
38480;DHT22;62333;51.980;5.934;2024-01-11T10:02:24;4.90;50.00
38480;DHT22;62333;51.980;5.934;2024-01-11T10:04:55;5.00;50.00
38480;DHT22;62333;51.980;5.934;2024-01-11T10:07:24;5.10;50.00
38480;DHT22;62333;51.980;5.934;2024-01-11T10:09:50;5.10;50.00
38480;DHT22;62333;51.980;5.934;2024-01-11T10:12:20;5.10;50.20
38480;DHT22;62333;51.980;5.934;2024-01-11T10:14:48;5.20;50.30
38480;DHT22;62333;51.980;5.934;2024-01-11T10:17:14;5.20;50.30
38480;DHT22;62333;51.980;5.934;2024-01-11T10:19:40;5.40;50.50
38480;DHT22;62333;51.980;5.934;2024-01-11T10:22:05;5.50;50.50
38480;DHT22;62333;51.980;5.934;2024-01-11T10:24:32;5.50;50.50
38480;DHT22;62333;51.980;5.934;2024-01-11T10:26:58;5.50;50.60
38480;DHT22;62333;51.980;5.934;2024-01-11T10:29:32;5.40;50.70
38480;DHT22;62333;51.980;5.934;2024-01-11T10:31:58;5.40;50.90
38480;DHT22;62333;51.980;5.934;2024-01-11T10:34:24;5.30;51.10
38480;DHT22;62333;51.980;5.934;2024-01-11T10:36:51;5.30;51.30
38480;DHT22;62333;51.980;5.934;2024-01-11T10:39:17;5.40;51.50
38480;DHT22;62333;51.980;5.934;2024-01-11T10:41:52;5.40;51.50
38480;DHT22;62333;51.980;5.934;2024-01-11T10:44:21;5.60;51.60
38480;DHT22;62333;51.980;5.934;2024-01-11T10:46:49;5.60;51.70
38480;DHT22;62333;51.980;5.934;2024-01-11T10:49:19;5.80;51.80
38480;DHT22;62333;51.980;5.934;2024-01-11T10:51:53;6.10;51.90
38480;DHT22;62333;51.980;5.934;2024-01-11T10:54:24;6.20;51.70
38480;DHT22;62333;51.980;5.934;2024-01-11T10:56:50;6.30;51.90
38480;DHT22;62333;51.980;5.934;2024-01-11T10:59:18;6.30;52.10
38480;DHT22;62333;51.980;5.934;2024-01-11T11:01:47;6.30;52.50
38480;DHT22;62333;51.980;5.934;2024-01-11T11:04:13;6.20;52.90
38480;DHT22;62333;51.980;5.934;2024-01-11T11:06:41;6.00;53.50
38480;DHT22;62333;51.980;5.934;2024-01-11T11:09:09;5.70;54.00
38480;DHT22;62333;51.980;5.934;2024-01-11T11:11:35;5.40;54.90
38480;DHT22;62333;51.980;5.934;2024-01-11T11:14:01;5.10;55.70
38480;DHT22;62333;51.980;5.934;2024-01-11T11:16:28;5.00;55.60
38480;DHT22;62333;51.980;5.934;2024-01-11T11:18:54;4.80;55.60
38480;DHT22;62333;51.980;5.934;2024-01-11T11:21:21;4.70;56.20
38480;DHT22;62333;51.980;5.934;2024-01-11T11:23:46;4.60;56.10
38480;DHT22;62333;51.980;5.934;2024-01-11T11:26:16;4.50;56.20
38480;DHT22;62333;51.980;5.934;2024-01-11T11:28:47;4.40;57.00
38480;DHT22;62333;51.980;5.934;2024-01-11T11:31:34;4.30;57.00
38480;DHT22;62333;51.980;5.934;2024-01-11T11:34:00;4.30;56.70
38480;DHT22;62333;51.980;5.934;2024-01-11T11:36:29;4.30;56.70
38480;DHT22;62333;51.980;5.934;2024-01-11T11:38:59;4.40;56.60
38480;DHT22;62333;51.980;5.934;2024-01-11T11:41:35;4.40;56.50
38480;DHT22;62333;51.980;5.934;2024-01-11T11:44:05;4.40;56.50
38480;DHT22;62333;51.980;5.934;2024-01-11T11:46:32;4.50;56.30
38480;DHT22;62333;51.980;5.934;2024-01-11T11:48:58;4.50;56.20
38480;DHT22;62333;51.980;5.934;2024-01-11T11:51:25;4.60;56.20
38480;DHT22;62333;51.980;5.934;2024-01-11T11:53:51;4.70;56.20
38480;DHT22;62333;51.980;5.934;2024-01-11T11:56:21;4.70;56.10
38480;DHT22;62333;51.980;5.934;2024-01-11T11:58:48;4.90;56.10
38480;DHT22;62333;51.980;5.934;2024-01-11T12:01:15;4.90;56.00
38480;DHT22;62333;51.980;5.934;2024-01-11T12:03:43;5.00;56.10
38480;DHT22;62333;51.980;5.934;2024-01-11T12:06:18;5.00;56.10
38480;DHT22;62333;51.980;5.934;2024-01-11T12:08:45;4.80;56.10
38480;DHT22;62333;51.980;5.934;2024-01-11T12:11:19;4.90;56.20
38480;DHT22;62333;51.980;5.934;2024-01-11T12:13:45;5.00;56.30
38480;DHT22;62333;51.980;5.934;2024-01-11T12:16:12;5.00;56.50
38480;DHT22;62333;51.980;5.934;2024-01-11T12:18:37;5.00;56.70
38480;DHT22;62333;51.980;5.934;2024-01-11T12:21:04;5.00;57.00
38480;DHT22;62333;51.980;5.934;2024-01-11T12:23:29;5.00;57.10
38480;DHT22;62333;51.980;5.934;2024-01-11T12:26:00;4.90;57.40
38480;DHT22;62333;51.980;5.934;2024-01-11T12:28:26;4.90;57.60
38480;DHT22;62333;51.980;5.934;2024-01-11T12:30:52;5.00;57.70
38480;DHT22;62333;51.980;5.934;2024-01-11T12:33:18;5.10;57.70
38480;DHT22;62333;51.980;5.934;2024-01-11T12:35:44;5.20;57.80
38480;DHT22;62333;51.980;5.934;2024-01-11T12:38:10;5.30;57.80
38480;DHT22;62333;51.980;5.934;2024-01-11T12:40:36;5.30;57.90
38480;DHT22;62333;51.980;5.934;2024-01-11T12:43:06;5.40;58.00
38480;DHT22;62333;51.980;5.934;2024-01-11T12:45:36;5.40;58.10
38480;DHT22;62333;51.980;5.934;2024-01-11T12:48:02;5.50;58.30
38480;DHT22;62333;51.980;5.934;2024-01-11T12:50:30;5.50;58.40
38480;DHT22;62333;51.980;5.934;2024-01-11T12:53:06;5.40;58.50
38480;DHT22;62333;51.980;5.934;2024-01-11T12:55:32;5.40;58.80
38480;DHT22;62333;51.980;5.934;2024-01-11T12:58:09;5.30;59.00
38480;DHT22;62333;51.980;5.934;2024-01-11T13:00:35;5.30;59.20
38480;DHT22;62333;51.980;5.934;2024-01-11T13:03:02;5.40;59.50
38480;DHT22;62333;51.980;5.934;2024-01-11T13:05:28;5.40;59.60
38480;DHT22;62333;51.980;5.934;2024-01-11T13:07:55;5.50;59.80
38480;DHT22;62333;51.980;5.934;2024-01-11T13:10:21;5.50;59.70
38480;DHT22;62333;51.980;5.934;2024-01-11T13:12:53;5.50;60.00
38480;DHT22;62333;51.980;5.934;2024-01-11T13:15:20;5.60;60.10
38480;DHT22;62333;51.980;5.934;2024-01-11T13:17:46;5.60;60.40
38480;DHT22;62333;51.980;5.934;2024-01-11T13:20:11;5.70;60.50
38480;DHT22;62333;51.980;5.934;2024-01-11T13:22:37;5.70;60.50
38480;DHT22;62333;51.980;5.934;2024-01-11T13:25:03;5.70;60.60
38480;DHT22;62333;51.980;5.934;2024-01-11T13:27:30;5.80;60.80
38480;DHT22;62333;51.980;5.934;2024-01-11T13:29:56;5.80;61.00
38480;DHT22;62333;51.980;5.934;2024-01-11T13:32:23;5.80;61.20
38480;DHT22;62333;51.980;5.934;2024-01-11T13:34:49;5.80;61.30
38480;DHT22;62333;51.980;5.934;2024-01-11T13:37:18;5.80;61.40
38480;DHT22;62333;51.980;5.934;2024-01-11T13:39:44;5.90;61.60
38480;DHT22;62333;51.980;5.934;2024-01-11T13:42:10;5.90;61.70
38480;DHT22;62333;51.980;5.934;2024-01-11T13:44:38;5.90;61.90
38480;DHT22;62333;51.980;5.934;2024-01-11T13:47:03;5.90;62.00
38480;DHT22;62333;51.980;5.934;2024-01-11T13:49:29;6.00;62.20
38480;DHT22;62333;51.980;5.934;2024-01-11T13:51:55;6.00;62.30
38480;DHT22;62333;51.980;5.934;2024-01-11T13:54:20;6.00;62.40
38480;DHT22;62333;51.980;5.934;2024-01-11T13:56:47;6.00;62.40
38480;DHT22;62333;51.980;5.934;2024-01-11T13:59:13;6.10;62.70
38480;DHT22;62333;51.980;5.934;2024-01-11T14:01:39;6.00;62.80
38480;DHT22;62333;51.980;5.934;2024-01-11T14:04:05;6.00;63.00
38480;DHT22;62333;51.980;5.934;2024-01-11T14:06:31;6.00;63.10
38480;DHT22;62333;51.980;5.934;2024-01-11T14:08:57;6.00;63.20
38480;DHT22;62333;51.980;5.934;2024-01-11T14:11:22;6.00;63.40
38480;DHT22;62333;51.980;5.934;2024-01-11T14:13:48;6.00;63.50
38480;DHT22;62333;51.980;5.934;2024-01-11T14:16:14;5.90;63.50
38480;DHT22;62333;51.980;5.934;2024-01-11T14:18:41;5.90;63.60
38480;DHT22;62333;51.980;5.934;2024-01-11T14:21:07;5.90;63.70
38480;DHT22;62333;51.980;5.934;2024-01-11T14:23:32;5.90;63.80
38480;DHT22;62333;51.980;5.934;2024-01-11T14:25:58;5.90;63.90
38480;DHT22;62333;51.980;5.934;2024-01-11T14:28:24;5.90;64.00
38480;DHT22;62333;51.980;5.934;2024-01-11T14:30:49;5.90;64.10
38480;DHT22;62333;51.980;5.934;2024-01-11T14:33:15;5.90;64.20
38480;DHT22;62333;51.980;5.934;2024-01-11T14:35:41;5.90;64.20
38480;DHT22;62333;51.980;5.934;2024-01-11T14:38:06;5.90;64.40
38480;DHT22;62333;51.980;5.934;2024-01-11T14:40:32;5.80;64.50
38480;DHT22;62333;51.980;5.934;2024-01-11T14:42:58;5.80;64.70
38480;DHT22;62333;51.980;5.934;2024-01-11T14:45:23;5.80;64.80
38480;DHT22;62333;51.980;5.934;2024-01-11T14:47:49;5.90;64.90
38480;DHT22;62333;51.980;5.934;2024-01-11T14:50:14;5.90;65.00
38480;DHT22;62333;51.980;5.934;2024-01-11T14:52:40;5.90;65.00
38480;DHT22;62333;51.980;5.934;2024-01-11T14:55:07;5.90;65.00
38480;DHT22;62333;51.980;5.934;2024-01-11T14:57:33;5.90;65.10
38480;DHT22;62333;51.980;5.934;2024-01-11T14:59:58;5.90;65.20
38480;DHT22;62333;51.980;5.934;2024-01-11T15:02:24;5.90;65.20
38480;DHT22;62333;51.980;5.934;2024-01-11T15:04:50;5.90;65.40
38480;DHT22;62333;51.980;5.934;2024-01-11T15:07:16;6.00;65.40
38480;DHT22;62333;51.980;5.934;2024-01-11T15:09:42;6.00;65.50
38480;DHT22;62333;51.980;5.934;2024-01-11T15:12:08;6.00;65.60
38480;DHT22;62333;51.980;5.934;2024-01-11T15:14:33;6.00;65.70
38480;DHT22;62333;51.980;5.934;2024-01-11T15:16:59;6.00;65.80
38480;DHT22;62333;51.980;5.934;2024-01-11T15:19:25;6.10;66.00
38480;DHT22;62333;51.980;5.934;2024-01-11T15:21:51;6.10;66.00
38480;DHT22;62333;51.980;5.934;2024-01-11T15:24:17;6.10;66.00
38480;DHT22;62333;51.980;5.934;2024-01-11T15:26:45;6.10;66.10
38480;DHT22;62333;51.980;5.934;2024-01-11T15:29:10;6.10;66.10
38480;DHT22;62333;51.980;5.934;2024-01-11T15:31:36;6.10;66.20
38480;DHT22;62333;51.980;5.934;2024-01-11T15:34:04;6.10;66.20
38480;DHT22;62333;51.980;5.934;2024-01-11T15:36:29;6.20;66.30
38480;DHT22;62333;51.980;5.934;2024-01-11T15:38:55;6.20;66.30
38480;DHT22;62333;51.980;5.934;2024-01-11T15:41:21;6.20;66.40